createdAt,value
2023-04-08T00:01:50.616Z,47.00
2023-04-08T00:04:18.339Z,52.05
2023-04-08T00:06:45.988Z,51.90
2023-04-08T00:09:13.446Z,42.80
2023-04-08T00:11:40.860Z,47.38
2023-04-08T00:14:08.416Z,43.30
2023-04-08T00:16:35.815Z,41.33
2023-04-08T00:19:03.398Z,39.88
2023-04-08T00:21:31.745Z,41.60
2023-04-08T00:23:59.226Z,38.78
2023-04-08T00:26:27.390Z,41.22
2023-04-08T00:28:54.840Z,38.97
2023-04-08T00:31:22.372Z,36.65
2023-04-08T00:33:51.138Z,38.35
2023-04-08T00:36:19.282Z,38.65
2023-04-08T00:38:47.005Z,40.47
2023-04-08T00:41:14.505Z,40.55
2023-04-08T00:43:42.095Z,40.28
2023-04-08T00:46:10.815Z,40.53
2023-04-08T00:48:38.428Z,42.45
2023-04-08T00:51:06.104Z,42.78
2023-04-08T00:53:33.551Z,45.85
2023-04-08T00:56:01.622Z,45.25
2023-04-08T00:58:30.050Z,44.75
2023-04-08T01:01:02.071Z,45.47
2023-04-08T01:03:36.056Z,43.55
2023-04-08T01:06:10.785Z,43.60
2023-04-08T01:08:39.336Z,39.47
2023-04-08T01:11:08.980Z,40.67
2023-04-08T01:13:38.384Z,43.28
2023-04-08T01:16:10.735Z,40.97
2023-04-08T01:18:39.549Z,42.60
2023-04-08T01:21:07.317Z,47.25
2023-04-08T01:23:40.063Z,41.30
2023-04-08T01:26:08.206Z,40.65
2023-04-08T01:28:36.131Z,38.88
2023-04-08T01:31:04.198Z,34.03
2023-04-08T01:33:32.399Z,35.55
2023-04-08T01:35:59.979Z,32.95
2023-04-08T01:38:27.987Z,38.58
2023-04-08T01:40:56.062Z,36.10
2023-04-08T01:43:23.925Z,29.38
2023-04-08T01:45:54.575Z,33.88
2023-04-08T01:48:22.424Z,31.33
2023-04-08T01:50:51.369Z,34.00
2023-04-08T01:53:18.922Z,35.67
2023-04-08T01:55:46.920Z,32.30
2023-04-08T01:58:19.331Z,33.92
2023-04-08T02:00:47.538Z,32.58
2023-04-08T02:03:15.974Z,32.53
2023-04-08T02:05:45.793Z,31.35
2023-04-08T02:08:13.539Z,35.22
2023-04-08T02:10:41.209Z,31.85
2023-04-08T02:13:08.728Z,33.05
2023-04-08T02:15:38.686Z,37.95
2023-04-08T02:18:14.604Z,32.80
2023-04-08T02:20:44.801Z,32.72
2023-04-08T02:23:16.854Z,32.70
2023-04-08T02:25:46.082Z,30.55
2023-04-08T02:28:15.860Z,34.70
2023-04-08T02:30:44.445Z,33.67
2023-04-08T02:33:12.817Z,33.78
2023-04-08T02:35:41.481Z,33.10
2023-04-08T02:38:11.190Z,37.47
2023-04-08T02:40:38.949Z,33.33
2023-04-08T02:43:06.400Z,35.15
2023-04-08T02:45:42.399Z,33.80
2023-04-08T02:48:10.631Z,33.47
2023-04-08T02:50:38.259Z,34.60
2023-04-08T02:53:05.912Z,31.83
2023-04-08T02:55:35.602Z,34.60
2023-04-08T02:58:03.133Z,33.25
2023-04-08T03:00:30.934Z,37.10
2023-04-08T03:02:58.575Z,35.70
2023-04-08T03:05:27.156Z,32.65
2023-04-08T03:07:54.692Z,35.15
2023-04-08T03:10:22.127Z,35.70
2023-04-08T03:12:49.572Z,34.95
2023-04-08T03:15:17.052Z,35.00
2023-04-08T03:17:44.672Z,35.92
2023-04-08T03:20:12.245Z,34.50
2023-04-08T03:22:39.756Z,38.33
2023-04-08T03:25:07.480Z,32.95
2023-04-08T03:27:34.954Z,35.45
2023-04-08T03:30:02.404Z,37.60
2023-04-08T03:32:30.027Z,35.28
2023-04-08T03:34:57.505Z,33.63
2023-04-08T03:37:24.957Z,33.92
2023-04-08T03:39:52.371Z,32.20
2023-04-08T03:42:19.929Z,38.50
2023-04-08T03:44:47.362Z,36.65
2023-04-08T03:47:14.804Z,33.88
2023-04-08T03:49:42.252Z,37.38
2023-04-08T03:52:09.841Z,34.33
2023-04-08T03:54:37.357Z,35.97
2023-04-08T03:57:04.836Z,32.90
2023-04-08T03:59:33.960Z,36.33
2023-04-08T04:02:01.497Z,36.95
2023-04-08T04:04:29.039Z,32.47
2023-04-08T04:06:56.570Z,38.38
2023-04-08T04:09:24.109Z,36.25
2023-04-08T04:11:51.668Z,34.65
2023-04-08T04:14:19.052Z,35.65
2023-04-08T04:16:46.468Z,35.05
2023-04-08T04:19:13.884Z,36.85
2023-04-08T04:21:41.310Z,34.90
2023-04-08T04:24:08.703Z,37.97
2023-04-08T04:26:36.329Z,37.47
2023-04-08T04:29:03.704Z,40.85
2023-04-08T04:31:31.329Z,37.75
2023-04-08T04:33:58.768Z,40.95
2023-04-08T04:36:26.583Z,42.42
2023-04-08T04:38:54.184Z,43.20
2023-04-08T04:41:21.894Z,40.30
2023-04-08T04:43:49.388Z,33.47
2023-04-08T04:46:17.126Z,38.20
2023-04-08T04:48:44.598Z,35.97
2023-04-08T04:51:12.059Z,40.10
2023-04-08T04:53:39.590Z,41.10
2023-04-08T04:56:07.150Z,38.22
2023-04-08T04:58:34.607Z,34.67
2023-04-08T05:01:02.119Z,31.98
2023-04-08T05:03:29.640Z,34.25
2023-04-08T05:05:57.050Z,36.25
2023-04-08T05:08:26.539Z,36.20
2023-04-08T05:10:56.187Z,39.50
2023-04-08T05:13:23.692Z,36.25
2023-04-08T05:15:51.410Z,33.92
2023-04-08T05:18:18.895Z,32.30
2023-04-08T05:20:46.931Z,30.85
2023-04-08T05:23:14.348Z,31.65
2023-04-08T05:25:41.878Z,37.42
2023-04-08T05:28:09.321Z,33.00
2023-04-08T05:30:36.862Z,31.98
2023-04-08T05:33:04.535Z,32.50
2023-04-08T05:35:32.173Z,35.03
2023-04-08T05:37:59.607Z,31.30
2023-04-08T05:40:27.261Z,35.28
2023-04-08T05:42:54.691Z,34.47
2023-04-08T05:45:22.244Z,32.60
2023-04-08T05:47:49.724Z,33.67
2023-04-08T05:50:17.321Z,28.63
2023-04-08T05:52:45.494Z,28.10
2023-04-08T05:55:13.811Z,27.75
2023-04-08T05:57:41.586Z,25.88
2023-04-08T06:00:10.782Z,26.90
2023-04-08T06:02:39.012Z,26.30
2023-04-08T06:05:07.258Z,23.38
2023-04-08T06:07:34.960Z,26.02
2023-04-08T06:10:02.628Z,26.80
2023-04-08T06:12:30.187Z,24.55
2023-04-08T06:14:57.664Z,23.83
2023-04-08T06:17:25.289Z,26.27
2023-04-08T06:19:52.792Z,25.15
2023-04-08T06:22:20.179Z,24.17
2023-04-08T06:24:50.864Z,23.23
2023-04-08T06:27:18.367Z,23.05
2023-04-08T06:29:45.822Z,23.90
2023-04-08T06:32:16.017Z,20.85
2023-04-08T06:34:45.681Z,21.77
2023-04-08T06:37:13.092Z,24.20
2023-04-08T06:39:40.526Z,20.02
2023-04-08T06:42:07.943Z,19.08
2023-04-08T06:44:58.622Z,20.65
2023-04-08T06:47:26.245Z,20.40
2023-04-08T06:49:54.469Z,21.30
2023-04-08T06:52:21.973Z,21.80
2023-04-08T06:54:49.404Z,19.15
2023-04-08T06:57:16.952Z,17.15
2023-04-08T06:59:44.356Z,18.35
2023-04-08T07:02:12.360Z,17.52
2023-04-08T07:04:39.766Z,16.83
2023-04-08T07:07:07.485Z,17.23
2023-04-08T07:09:34.859Z,16.48
2023-04-08T07:12:03.826Z,17.30
2023-04-08T07:14:31.473Z,16.63
2023-04-08T07:16:58.924Z,17.63
2023-04-08T07:19:27.066Z,20.10
2023-04-08T07:21:54.470Z,17.52
2023-04-08T07:24:21.974Z,17.20
2023-04-08T07:26:49.715Z,17.98
2023-04-08T07:29:17.158Z,16.85
2023-04-08T07:31:44.907Z,15.65
2023-04-08T07:34:13.014Z,16.15
2023-04-08T07:36:40.917Z,17.60
2023-04-08T07:39:08.324Z,16.05
2023-04-08T07:41:35.990Z,15.73
2023-04-08T07:44:03.393Z,17.95
2023-04-08T07:46:31.753Z,17.13
2023-04-08T07:48:59.341Z,17.65
2023-04-08T07:51:27.789Z,17.52
2023-04-08T07:53:55.216Z,17.60
2023-04-08T07:56:22.863Z,16.85
2023-04-08T07:58:52.910Z,16.00
2023-04-08T08:01:22.675Z,19.65
2023-04-08T08:03:51.698Z,15.85
2023-04-08T08:06:19.754Z,16.23
2023-04-08T08:08:47.125Z,20.15
2023-04-08T08:11:14.634Z,16.33
2023-04-08T08:13:42.429Z,16.48
2023-04-08T08:16:11.978Z,17.75
2023-04-08T08:18:40.591Z,19.55
2023-04-08T08:21:08.535Z,15.43
2023-04-08T08:23:36.109Z,16.45
2023-04-08T08:26:04.632Z,21.63
2023-04-08T08:28:32.027Z,18.77
2023-04-08T08:30:59.720Z,17.60
2023-04-08T08:33:27.332Z,17.85
2023-04-08T08:35:55.614Z,16.90
2023-04-08T08:38:23.100Z,19.25
2023-04-08T08:40:59.981Z,18.60
2023-04-08T08:43:28.104Z,18.55
2023-04-08T08:45:55.885Z,22.35
2023-04-08T08:48:23.532Z,22.60
2023-04-08T08:50:51.195Z,20.20
2023-04-08T08:53:19.778Z,23.38
2023-04-08T08:58:17.803Z,19.67
2023-04-08T09:00:45.551Z,18.15
2023-04-08T09:03:20.844Z,18.00
2023-04-08T09:05:55.671Z,15.65
2023-04-08T09:08:33.534Z,16.63
2023-04-08T09:11:14.357Z,18.10
2023-04-08T09:13:42.285Z,17.67
2023-04-08T09:16:10.960Z,17.52
2023-04-08T09:18:39.126Z,17.02
2023-04-08T09:21:07.250Z,15.30
2023-04-08T09:23:48.730Z,16.25
2023-04-08T09:26:17.377Z,13.60
2023-04-08T09:28:45.748Z,14.40
2023-04-08T09:31:23.686Z,15.43
2023-04-08T09:33:52.238Z,16.23
2023-04-08T09:36:19.910Z,16.65
2023-04-08T09:38:47.907Z,15.60
2023-04-08T09:41:16.635Z,16.80
2023-04-08T09:43:55.841Z,15.90
2023-04-08T09:46:48.282Z,15.95
2023-04-08T09:49:27.754Z,15.75
2023-04-08T09:52:07.452Z,16.48
2023-04-08T09:54:55.375Z,16.02
2023-04-08T09:57:26.708Z,15.68
2023-04-08T10:00:01.880Z,15.55
2023-04-08T10:02:31.593Z,12.73
2023-04-08T10:05:01.022Z,16.10
2023-04-08T10:07:28.694Z,13.55
2023-04-08T10:09:56.622Z,16.48
2023-04-08T10:12:24.119Z,17.02
2023-04-08T10:15:10.385Z,13.25
2023-04-08T10:17:37.888Z,13.30
2023-04-08T10:20:05.634Z,16.17
2023-04-08T10:22:48.133Z,13.00
2023-04-08T10:25:29.857Z,15.63
2023-04-08T10:27:57.337Z,14.57
2023-04-08T10:30:33.456Z,15.07
2023-04-08T10:33:01.599Z,17.17
2023-04-08T10:35:41.885Z,13.95
2023-04-08T10:38:09.954Z,15.90
2023-04-08T10:40:39.131Z,13.82
2023-04-08T10:43:06.722Z,14.20
2023-04-08T10:45:34.655Z,14.50
2023-04-08T10:48:14.420Z,13.27
2023-04-08T10:50:42.202Z,14.25
2023-04-08T10:53:09.694Z,13.95
2023-04-08T10:55:37.239Z,15.30
2023-04-08T10:58:08.609Z,13.45
2023-04-08T11:00:37.432Z,14.85
2023-04-08T11:03:06.096Z,14.65
2023-04-08T11:05:34.094Z,13.65
2023-04-08T11:08:02.098Z,13.10
2023-04-08T11:10:29.814Z,13.70
2023-04-08T11:12:57.491Z,11.82
2023-04-08T11:15:25.511Z,12.60
2023-04-08T11:17:54.253Z,16.27
2023-04-08T11:20:22.107Z,13.63
2023-04-08T11:22:49.679Z,15.77
2023-04-08T11:25:17.330Z,11.75
2023-04-08T11:27:45.107Z,12.15
2023-04-08T11:30:12.993Z,15.40
2023-04-08T11:32:40.674Z,14.30
2023-04-08T11:35:08.390Z,15.55
2023-04-08T11:37:42.852Z,16.83
2023-04-08T11:40:10.524Z,14.25
2023-04-08T11:42:38.237Z,14.05
2023-04-08T11:45:12.610Z,13.05
2023-04-08T11:47:40.619Z,14.50
2023-04-08T11:50:08.597Z,12.68
2023-04-08T11:52:42.839Z,13.18
2023-04-08T11:55:11.952Z,14.13
2023-04-08T11:57:40.217Z,11.90
2023-04-08T12:00:08.109Z,12.32
2023-04-08T12:02:38.367Z,14.27
2023-04-08T12:05:06.123Z,14.43
2023-04-08T12:07:33.631Z,12.77
2023-04-08T12:10:01.708Z,12.85
2023-04-08T12:12:29.244Z,12.23
2023-04-08T12:14:56.646Z,14.55
2023-04-08T12:17:24.209Z,12.55
2023-04-08T12:19:51.693Z,12.63
2023-04-08T12:22:19.137Z,13.23
2023-04-08T12:24:46.617Z,13.32
2023-04-08T12:27:14.028Z,13.45
2023-04-08T12:29:41.813Z,12.90
2023-04-08T12:32:09.197Z,15.13
2023-04-08T12:34:36.789Z,15.60
2023-04-08T12:37:04.207Z,16.63
2023-04-08T12:39:31.716Z,15.30
2023-04-08T12:41:59.643Z,13.98
2023-04-08T12:44:27.122Z,13.07
2023-04-08T12:46:54.921Z,13.00
2023-04-08T12:49:23.417Z,14.80
2023-04-08T12:51:50.880Z,14.55
2023-04-08T12:54:18.326Z,14.57
2023-04-08T12:56:45.832Z,13.65
2023-04-08T12:59:13.356Z,16.10
2023-04-08T13:01:40.796Z,18.90
2023-04-08T13:04:08.311Z,14.50
2023-04-08T13:06:35.958Z,14.73
2023-04-08T13:09:04.200Z,13.90
2023-04-08T13:11:34.123Z,13.18
2023-04-08T13:14:02.220Z,14.20
2023-04-08T13:16:29.668Z,14.23
2023-04-08T13:18:57.124Z,16.65
2023-04-08T13:21:24.584Z,15.45
2023-04-08T13:23:51.993Z,16.65
2023-04-08T13:26:19.483Z,17.42
2023-04-08T13:28:56.810Z,16.98
2023-04-08T13:31:25.779Z,16.30
2023-04-08T13:33:56.060Z,14.82
2023-04-08T13:36:26.058Z,17.90
2023-04-08T13:38:53.686Z,14.02
2023-04-08T13:41:21.961Z,15.13
2023-04-08T13:43:50.490Z,19.55
2023-04-08T13:46:18.265Z,12.45
2023-04-08T13:48:46.554Z,15.55
2023-04-08T13:51:14.093Z,14.25
2023-04-08T13:53:41.676Z,13.85
2023-04-08T13:56:09.157Z,15.35
2023-04-08T13:58:37.011Z,11.80
2023-04-08T14:01:04.503Z,13.82
2023-04-08T14:03:31.999Z,12.55
2023-04-08T14:06:01.546Z,13.27
2023-04-08T14:08:29.341Z,12.73
2023-04-08T14:10:57.884Z,13.80
2023-04-08T14:13:25.697Z,11.80
2023-04-08T14:15:55.183Z,13.73
2023-04-08T14:18:22.703Z,22.02
2023-04-08T14:20:50.136Z,13.95
2023-04-08T14:23:17.607Z,12.80
2023-04-08T14:25:45.062Z,13.35
2023-04-08T14:28:12.572Z,12.50
2023-04-08T14:30:40.116Z,12.43
2023-04-08T14:33:07.769Z,14.73
2023-04-08T14:35:36.766Z,14.30
2023-04-08T14:38:04.266Z,12.90
2023-04-08T14:40:31.645Z,16.73
2023-04-08T14:42:59.073Z,15.27
2023-04-08T14:45:27.139Z,16.02
2023-04-08T14:47:54.707Z,12.30
2023-04-08T14:50:22.499Z,15.63
2023-04-08T14:52:50.225Z,13.65
2023-04-08T14:55:17.697Z,13.15
2023-04-08T14:57:45.239Z,13.27
2023-04-08T15:00:12.923Z,14.25
2023-04-08T15:02:40.560Z,16.95
2023-04-08T15:05:08.621Z,19.48
2023-04-08T15:07:36.483Z,18.45
2023-04-08T15:10:03.965Z,16.50
2023-04-08T15:12:33.139Z,16.45
2023-04-08T15:15:00.820Z,14.50
2023-04-08T15:17:28.579Z,14.95
2023-04-08T15:19:56.090Z,18.55
2023-04-08T15:22:23.544Z,18.33
2023-04-08T15:24:51.282Z,18.65
2023-04-08T15:27:19.750Z,16.83
2023-04-08T15:29:47.669Z,16.85
2023-04-08T15:32:15.162Z,17.30
2023-04-08T15:34:42.634Z,17.35
2023-04-08T15:37:10.162Z,22.67
2023-04-08T15:39:37.612Z,19.15
2023-04-08T15:42:05.411Z,16.23
2023-04-08T15:44:33.051Z,16.23
2023-04-08T15:47:00.561Z,22.75
2023-04-08T15:49:28.122Z,39.08
2023-04-08T15:51:55.517Z,22.35
2023-04-08T15:54:22.919Z,18.35
2023-04-08T15:56:50.494Z,16.45
2023-04-08T15:59:17.955Z,18.60
2023-04-08T16:01:45.651Z,17.92
2023-04-08T16:04:13.322Z,20.23
2023-04-08T16:06:41.107Z,19.42
2023-04-08T16:09:10.478Z,18.20
2023-04-08T16:11:37.990Z,24.52
2023-04-08T16:14:05.498Z,21.52
2023-04-08T16:16:33.189Z,20.60
2023-04-08T16:19:02.325Z,21.73
2023-04-08T16:21:30.967Z,24.00
2023-04-08T16:23:58.397Z,24.35
2023-04-08T16:26:27.334Z,22.38
2023-04-08T16:28:54.827Z,24.73
2023-04-08T16:31:22.364Z,24.25
2023-04-08T16:33:49.989Z,23.05
2023-04-08T16:36:18.964Z,21.52
2023-04-08T16:38:46.562Z,27.48
2023-04-08T16:41:14.055Z,23.95
2023-04-08T16:43:41.949Z,22.88
2023-04-08T16:46:28.245Z,20.42
2023-04-08T16:48:56.030Z,25.40
2023-04-08T16:51:23.467Z,44.28
2023-04-08T16:53:51.187Z,38.45
2023-04-08T16:56:18.903Z,36.80
2023-04-08T16:58:46.562Z,35.42
2023-04-08T17:01:14.299Z,35.60
2023-04-08T17:03:42.310Z,32.80
2023-04-08T17:06:10.477Z,33.63
2023-04-08T17:08:38.459Z,30.27
2023-04-08T17:11:07.355Z,35.30
2023-04-08T17:13:34.821Z,34.30
2023-04-08T17:16:02.352Z,36.78
2023-04-08T17:18:30.128Z,44.85
2023-04-08T17:20:57.692Z,48.20
2023-04-08T17:23:25.355Z,33.33
2023-04-08T17:25:54.008Z,36.15
2023-04-08T17:28:22.073Z,40.30
2023-04-08T17:30:50.229Z,30.02
2023-04-08T17:33:17.664Z,29.65
2023-04-08T17:35:45.101Z,27.23
2023-04-08T17:38:13.102Z,29.27
2023-04-08T17:40:40.588Z,28.10
2023-04-08T17:43:08.217Z,31.60
2023-04-08T17:45:35.862Z,29.35
2023-04-08T17:48:06.320Z,31.58
2023-04-08T17:50:35.361Z,29.35
2023-04-08T17:53:03.039Z,30.17
2023-04-08T17:55:30.595Z,29.42
2023-04-08T17:57:58.076Z,27.88
2023-04-08T18:00:26.687Z,29.27
2023-04-08T18:02:54.371Z,30.90
2023-04-08T18:05:22.064Z,32.03
2023-04-08T18:07:49.543Z,32.03
2023-04-08T18:10:17.774Z,31.73
2023-04-08T18:12:45.927Z,30.10
2023-04-08T18:15:13.473Z,33.25
2023-04-08T18:17:41.131Z,32.58
2023-04-08T18:20:08.911Z,28.92
2023-04-08T18:22:36.507Z,31.00
2023-04-08T18:25:04.658Z,32.25
2023-04-08T18:27:32.141Z,28.35
2023-04-08T18:29:59.840Z,28.95
2023-04-08T18:32:27.437Z,31.63
2023-04-08T18:34:54.935Z,30.63
2023-04-08T18:37:23.029Z,32.30
2023-04-08T18:39:50.540Z,31.48
2023-04-08T18:42:18.213Z,31.02
2023-04-08T18:44:45.778Z,29.50
2023-04-08T18:47:13.362Z,30.52
2023-04-08T18:49:40.851Z,28.30
2023-04-08T18:52:09.227Z,30.88
2023-04-08T18:54:36.739Z,32.80
2023-04-08T18:57:04.568Z,33.50
2023-04-08T18:59:32.019Z,38.38
2023-04-08T19:01:59.714Z,43.60
2023-04-08T19:04:27.480Z,60.15
2023-04-08T19:06:55.027Z,46.65
2023-04-08T19:09:22.628Z,49.55
2023-04-08T19:11:50.192Z,72.55
2023-04-08T19:14:18.027Z,53.60
2023-04-08T19:16:46.184Z,50.28
2023-04-08T19:19:13.663Z,44.97
2023-04-08T19:21:41.158Z,34.50
2023-04-08T19:24:09.325Z,35.65
2023-04-08T19:26:36.902Z,31.60
2023-04-08T19:29:04.373Z,31.48
2023-04-08T19:31:31.977Z,33.70
2023-04-08T19:33:59.523Z,34.92
2023-04-08T19:36:27.559Z,34.10
2023-04-08T19:38:55.108Z,34.25
2023-04-08T19:41:23.242Z,31.45
2023-04-08T19:43:50.922Z,34.72
2023-04-08T19:46:18.621Z,33.22
2023-04-08T19:48:46.509Z,36.08
2023-04-08T19:51:19.069Z,33.45
2023-04-08T19:53:47.043Z,37.97
2023-04-08T19:56:14.722Z,36.92
2023-04-08T19:58:42.259Z,46.75
2023-04-08T20:01:10.163Z,44.47
2023-04-08T20:03:37.704Z,34.13
2023-04-08T20:06:05.657Z,36.40
2023-04-08T20:08:34.618Z,54.35
2023-04-08T20:11:04.448Z,38.53
2023-04-08T20:13:32.279Z,36.30
2023-04-08T20:15:59.744Z,42.80
2023-04-08T20:18:27.405Z,42.80
2023-04-08T20:20:54.940Z,36.05
2023-04-08T20:23:22.666Z,33.03
2023-04-08T20:25:50.953Z,38.17
2023-04-08T20:28:18.968Z,34.08
2023-04-08T20:30:46.567Z,37.97
2023-04-08T20:33:13.953Z,38.60
2023-04-08T20:35:41.515Z,35.97
2023-04-08T20:38:09.818Z,37.30
2023-04-08T20:40:37.407Z,35.80
2023-04-08T20:43:04.875Z,36.90
2023-04-08T20:45:32.339Z,40.53
2023-04-08T20:48:00.934Z,40.25
2023-04-08T20:50:28.576Z,39.20
2023-04-08T20:52:56.089Z,40.17
2023-04-08T20:55:23.718Z,39.60
2023-04-08T20:57:51.133Z,41.25
2023-04-08T21:00:18.712Z,40.88
2023-04-08T21:02:46.488Z,37.92
2023-04-08T21:05:14.203Z,37.80
2023-04-08T21:07:44.563Z,38.30
2023-04-08T21:10:15.924Z,37.80
2023-04-08T21:12:43.533Z,40.38
2023-04-08T21:15:11.364Z,37.53
2023-04-08T21:17:39.013Z,38.92
2023-04-08T21:20:07.133Z,36.60
2023-04-08T21:22:34.646Z,39.25
2023-04-08T21:25:02.094Z,38.45
2023-04-08T21:27:29.863Z,35.22
2023-04-08T21:29:57.362Z,35.00
2023-04-08T21:32:24.878Z,35.88
2023-04-08T21:34:55.802Z,39.28
2023-04-08T21:37:23.511Z,35.53
2023-04-08T21:39:51.545Z,39.85
2023-04-08T21:42:22.732Z,42.45
2023-04-08T21:44:50.382Z,40.60
2023-04-08T21:47:18.092Z,39.80
2023-04-08T21:49:45.605Z,41.03
2023-04-08T21:52:13.070Z,39.70
2023-04-08T21:54:40.654Z,42.30
2023-04-08T21:57:08.103Z,39.47
2023-04-08T21:59:35.676Z,41.58
2023-04-08T22:02:04.396Z,43.13
2023-04-08T22:04:31.974Z,43.88
2023-04-08T22:06:59.383Z,43.55
2023-04-08T22:09:27.104Z,44.67
2023-04-08T22:11:54.838Z,45.10
2023-04-08T22:14:22.303Z,48.83
2023-04-08T22:16:49.904Z,47.10
2023-04-08T22:19:17.679Z,45.55
2023-04-08T22:21:45.206Z,48.30
2023-04-08T22:24:12.707Z,49.33
2023-04-08T22:26:40.139Z,50.80
2023-04-08T22:29:07.656Z,49.95
2023-04-08T22:31:35.070Z,48.47
2023-04-08T22:34:02.675Z,45.60
2023-04-08T22:36:30.200Z,45.17
2023-04-08T22:38:57.786Z,45.83
2023-04-08T22:41:25.667Z,47.60
2023-04-08T22:43:53.127Z,47.75
2023-04-08T22:46:20.848Z,47.58
2023-04-08T22:48:49.718Z,47.85
2023-04-08T22:51:17.367Z,45.97
2023-04-08T22:53:44.848Z,47.58
2023-04-08T22:56:12.328Z,46.83
2023-04-08T22:58:39.845Z,47.58
2023-04-08T23:01:18.244Z,48.03
2023-04-08T23:03:46.007Z,48.60
2023-04-08T23:06:13.454Z,47.38
2023-04-08T23:08:41.421Z,48.97
2023-04-08T23:11:08.889Z,49.70
2023-04-08T23:13:36.320Z,51.85
2023-04-08T23:16:03.940Z,51.33
2023-04-08T23:18:31.400Z,51.55
2023-04-08T23:20:59.112Z,52.60
2023-04-08T23:23:26.762Z,52.72
2023-04-08T23:25:55.680Z,49.08
2023-04-08T23:28:23.716Z,49.63
2023-04-08T23:30:51.240Z,50.25
2023-04-08T23:33:18.744Z,55.13
2023-04-08T23:35:46.229Z,54.78
2023-04-08T23:38:13.776Z,53.78
2023-04-08T23:40:41.254Z,54.65
2023-04-08T23:43:08.798Z,52.17
2023-04-08T23:45:36.174Z,52.10
2023-04-08T23:48:03.644Z,56.15
2023-04-08T23:50:31.174Z,55.03
2023-04-08T23:52:58.748Z,51.35
2023-04-08T23:55:26.276Z,55.40
2023-04-08T23:57:53.885Z,56.25
